Time;durP1;ratioP1;P1;durP2;ratioP2;P2;SDS_P1;SDS_P2;PMS_P1;PMS_P2;Temp;Humidity;BMP_temperature;BMP_pressure;BME280_temperature;BME280_humidity;BME280_pressure;Samples;Min_cycle;Max_cycle;Signal;HPM_P1;HPM_P2
2023/04/01 00:00:56;;;;;;;37.40;16.38;;;8.90;99.90;;;;;;5073945;28;20067;-24
2023/04/01 00:03:23;;;;;;;33.72;15.98;;;10.20;99.90;;;;;;5073836;28;20436;-24
2023/04/01 00:05:49;;;;;;;29.52;15.38;;;9.10;99.90;;;;;;5073825;28;20040;-24
2023/04/01 00:08:16;;;;;;;27.02;15.38;;;9.90;99.90;;;;;;5073483;28;20418;-24
2023/04/01 00:10:42;;;;;;;31.45;15.35;;;9.00;99.90;;;;;;5074002;28;20064;-24
2023/04/01 00:13:08;;;;;;;25.52;15.35;;;9.90;99.90;;;;;;5071663;28;20494;-24
2023/04/01 00:15:34;;;;;;;26.17;15.32;;;9.80;99.90;;;;;;5073715;28;20044;-24
2023/04/01 00:18:00;;;;;;;25.75;14.27;;;10.20;99.90;;;;;;5073349;28;20513;-24
2023/04/01 00:20:27;;;;;;;25.27;15.18;;;10.20;99.90;;;;;;5073693;28;20048;-24
2023/04/01 00:22:53;;;;;;;32.50;16.95;;;9.30;99.90;;;;;;5073639;28;20123;-24
2023/04/01 00:25:19;;;;;;;26.92;16.05;;;10.10;99.90;;;;;;5073583;28;20057;-24
2023/04/01 00:27:44;;;;;;;30.13;16.52;;;10.20;99.90;;;;;;5073555;28;20041;-24
2023/04/01 00:30:10;;;;;;;34.85;17.02;;;9.30;99.90;;;;;;5073493;28;20083;-24
2023/04/01 00:32:36;;;;;;;34.20;17.45;;;9.90;99.90;;;;;;5073502;28;20049;-24
2023/04/01 00:35:04;;;;;;;34.83;17.98;;;9.30;99.90;;;;;;5074360;28;20051;-24
2023/04/01 00:37:30;;;;;;;32.15;17.45;;;9.20;99.90;;;;;;5073351;28;20162;-24
2023/04/01 00:39:56;;;;;;;27.80;15.90;;;9.80;99.90;;;;;;5073492;28;20078;-24
2023/04/01 00:42:23;;;;;;;34.42;18.10;;;9.00;99.90;;;;;;5073442;28;20044;-24
2023/04/01 00:44:51;;;;;;;32.90;17.23;;;10.00;99.90;;;;;;5073971;28;20474;-24
2023/04/01 00:47:18;;;;;;;35.72;16.85;;;9.50;99.90;;;;;;5073352;28;20114;-25
2023/04/01 00:49:48;;;;;;;35.17;16.80;;;9.90;99.90;;;;;;5073284;28;20047;-24
2023/04/01 00:52:17;;;;;;;32.17;17.17;;;9.00;99.90;;;;;;5072821;28;20391;-24
2023/04/01 00:54:46;;;;;;;26.65;15.77;;;9.50;99.90;;;;;;5074155;28;20108;-24
2023/04/01 00:57:36;;;;;;;29.50;16.55;;;9.50;99.90;;;;;;5073301;28;20079;-24
2023/04/01 01:00:07;;;;;;;34.70;17.02;;;9.30;99.90;;;;;;5073328;28;20476;-24
2023/04/01 01:02:34;;;;;;;28.88;16.58;;;10.00;99.90;;;;;;5072216;28;20052;-24
2023/04/01 01:05:00;;;;;;;30.85;17.13;;;9.90;99.90;;;;;;5073287;28;20076;-24
2023/04/01 01:07:54;;;;;;;29.50;16.77;;;10.20;99.90;;;;;;5073228;28;20137;-24
2023/04/01 01:10:37;;;;;;;32.78;16.35;;;10.20;99.90;;;;;;5072903;28;20064;-24
2023/04/01 01:13:15;;;;;;;27.53;15.00;;;9.70;99.90;;;;;;5072859;28;20052;-24
2023/04/01 01:15:56;;;;;;;30.95;16.10;;;10.10;99.90;;;;;;5073441;28;20629;-24
2023/04/01 01:18:40;;;;;;;30.20;16.00;;;9.00;99.90;;;;;;5073729;28;20044;-24
2023/04/01 01:21:28;;;;;;;28.58;16.15;;;9.60;99.90;;;;;;5072051;28;20052;-24
2023/04/01 01:24:25;;;;;;;30.45;16.83;;;9.00;99.90;;;;;;5074093;28;20044;-24
2023/04/01 01:27:01;;;;;;;26.13;15.88;;;10.00;99.90;;;;;;5076096;28;20394;-24
2023/04/01 01:29:53;;;;;;;29.77;16.38;;;9.00;99.90;;;;;;5076658;28;20044;-24
2023/04/01 01:32:56;;;;;;;33.15;17.05;;;10.10;99.90;;;;;;5077487;28;20427;-24
2023/04/01 01:35:40;;;;;;;29.73;16.27;;;9.00;99.90;;;;;;5076587;28;20052;-24
2023/04/01 01:38:11;;;;;;;32.10;17.40;;;9.10;99.90;;;;;;5076554;28;20053;-24
2023/04/01 01:40:41;;;;;;;25.38;15.77;;;10.20;99.90;;;;;;5076570;28;20052;-24
2023/04/01 01:43:11;;;;;;;37.80;19.40;;;10.30;99.90;;;;;;5076439;28;20044;-24
2023/04/01 01:45:42;;;;;;;30.13;17.90;;;9.70;99.90;;;;;;5076632;28;20486;-25
2023/04/01 01:48:10;;;;;;;40.25;19.20;;;10.10;99.90;;;;;;5076754;28;20095;-24
2023/04/01 01:50:37;;;;;;;36.47;18.17;;;10.00;99.90;;;;;;5076312;28;20102;-25
2023/04/01 01:53:10;;;;;;;41.67;19.60;;;9.00;99.90;;;;;;5076240;28;20087;-25
2023/04/01 01:55:38;;;;;;;41.93;18.43;;;9.10;99.90;;;;;;5076331;28;20214;-24
2023/04/01 01:58:40;;;;;;;41.80;18.85;;;9.60;99.90;;;;;;5076198;28;20282;-24
2023/04/01 02:01:08;;;;;;;40.22;18.92;;;9.00;99.90;;;;;;5075539;28;20049;-24
2023/04/01 02:03:37;;;;;;;38.05;17.88;;;10.30;99.90;;;;;;5076951;28;20053;-25
2023/04/01 02:06:06;;;;;;;43.15;19.38;;;10.40;99.90;;;;;;5076863;28;20044;-25
2023/04/01 02:09:00;;;;;;;41.22;19.25;;;9.00;99.90;;;;;;5075886;28;20080;-25
2023/04/01 02:11:36;;;;;;;42.83;19.52;;;10.40;99.90;;;;;;5075414;28;20110;-25
2023/04/01 02:14:10;;;;;;;45.28;18.20;;;9.00;99.90;;;;;;5076226;28;20088;-26
2023/04/01 02:16:59;;;;;;;41.67;18.83;;;10.40;99.90;;;;;;5076204;28;20052;-25
2023/04/01 02:19:30;;;;;;;48.70;20.15;;;10.10;99.90;;;;;;5075135;28;20056;-25
2023/04/01 02:21:59;;;;;;;43.67;18.77;;;10.40;99.90;;;;;;5075827;28;20584;-24
2023/04/01 02:24:27;;;;;;;38.75;19.10;;;9.90;99.90;;;;;;5075733;28;20398;-25
2023/04/01 02:26:53;;;;;;;40.20;19.08;;;9.50;99.90;;;;;;5074711;28;20127;-25
2023/04/01 02:29:25;;;;;;;42.75;19.60;;;10.40;99.90;;;;;;5075497;28;20162;-25
2023/04/01 02:31:52;;;;;;;40.17;19.30;;;8.90;99.90;;;;;;5076132;28;20040;-25
2023/04/01 02:34:19;;;;;;;37.10;17.98;;;9.20;99.90;;;;;;5074574;28;20048;-25
2023/04/01 02:36:46;;;;;;;43.65;19.33;;;10.20;99.90;;;;;;5074886;28;20047;-25
2023/04/01 02:39:13;;;;;;;39.75;18.38;;;9.00;99.90;;;;;;5075434;28;20045;-25
2023/04/01 02:41:44;;;;;;;42.90;20.00;;;9.30;99.90;;;;;;5075433;28;20097;-25
2023/04/01 02:44:12;;;;;;;53.80;20.75;;;10.30;99.90;;;;;;5075935;28;20052;-26
2023/04/01 02:46:37;;;;;;;45.38;19.42;;;10.40;99.90;;;;;;5076071;28;20123;-25
2023/04/01 02:49:03;;;;;;;49.33;21.02;;;9.50;99.90;;;;;;5075506;28;20091;-25
2023/04/01 02:51:29;;;;;;;47.50;21.45;;;9.60;99.90;;;;;;5073960;28;20088;-25
2023/04/01 02:53:55;;;;;;;49.47;20.67;;;9.00;99.90;;;;;;5075011;28;20059;-25
2023/04/01 02:56:21;;;;;;;45.70;20.92;;;10.40;99.90;;;;;;5075104;28;20048;-25
2023/04/01 02:58:47;;;;;;;45.70;20.25;;;10.20;99.90;;;;;;5074122;28;20040;-25
2023/04/01 03:01:13;;;;;;;48.38;21.13;;;9.90;99.90;;;;;;5075009;28;20133;-26
2023/04/01 03:03:39;;;;;;;47.83;21.20;;;9.00;99.90;;;;;;5073954;28;20049;-25
2023/04/01 03:06:10;;;;;;;42.97;20.65;;;9.30;99.90;;;;;;5074873;28;20132;-25
2023/04/01 03:08:36;;;;;;;44.33;18.73;;;9.20;99.90;;;;;;5075683;28;20055;-25
2023/04/01 03:11:01;;;;;;;51.88;21.52;;;9.20;99.90;;;;;;5074660;28;20477;-25
2023/04/01 03:13:27;;;;;;;43.75;18.38;;;10.40;99.90;;;;;;5074703;28;20056;-25
2023/04/01 03:15:53;;;;;;;47.53;20.10;;;9.20;99.90;;;;;;5074607;28;20055;-24
2023/04/01 03:18:19;;;;;;;41.28;19.30;;;8.90;99.90;;;;;;5074736;28;20078;-24
2023/04/01 03:20:46;;;;;;;50.25;20.92;;;10.10;99.90;;;;;;5074595;28;20073;-24
2023/04/01 03:23:12;;;;;;;44.42;19.63;;;8.90;99.90;;;;;;5074542;28;20044;-24
2023/04/01 03:25:37;;;;;;;40.97;17.77;;;9.40;99.90;;;;;;5074509;28;20124;-24
2023/04/01 03:28:03;;;;;;;45.38;20.73;;;10.30;99.90;;;;;;5073359;28;20095;-24
2023/04/01 03:30:31;;;;;;;47.38;20.98;;;10.30;99.90;;;;;;5056332;28;20066;-24
2023/04/01 03:32:59;;;;;;;52.78;22.25;;;9.20;99.90;;;;;;5074373;28;20173;-24
2023/04/01 03:35:25;;;;;;;56.33;22.10;;;9.00;99.90;;;;;;5074286;28;20084;-24
2023/04/01 03:37:52;;;;;;;63.05;23.52;;;8.80;99.90;;;;;;5074290;28;20091;-24
2023/04/01 03:40:18;;;;;;;53.17;22.65;;;10.00;99.90;;;;;;5073043;28;20037;-24
2023/04/01 03:42:44;;;;;;;57.13;23.67;;;10.30;99.90;;;;;;5074212;28;20044;-24
2023/04/01 03:45:11;;;;;;;70.85;25.05;;;9.90;99.90;;;;;;5074433;28;20135;-24
2023/04/01 03:47:38;;;;;;;61.72;24.52;;;9.00;99.90;;;;;;5073822;28;20055;-24
2023/04/01 03:50:05;;;;;;;57.90;22.80;;;10.20;99.90;;;;;;5074044;28;20077;-24
2023/04/01 03:52:30;;;;;;;57.28;22.98;;;9.20;99.90;;;;;;5073994;28;20051;-24
2023/04/01 03:54:56;;;;;;;71.22;24.75;;;9.20;99.90;;;;;;5073996;28;20387;-24
2023/04/01 03:57:22;;;;;;;67.85;26.00;;;9.10;99.90;;;;;;5072772;28;20080;-24
2023/04/01 03:59:48;;;;;;;57.92;23.15;;;9.00;99.90;;;;;;5074209;28;20048;-24
2023/04/01 04:02:14;;;;;;;67.07;25.83;;;9.50;99.90;;;;;;5074703;28;20044;-24
2023/04/01 04:04:40;;;;;;;58.17;24.65;;;8.80;99.90;;;;;;5073539;28;20576;-24
2023/04/01 04:07:06;;;;;;;65.50;24.42;;;8.90;99.90;;;;;;5073781;28;20056;-24
2023/04/01 04:09:33;;;;;;;52.65;21.63;;;10.30;99.90;;;;;;5073742;28;20049;-24
2023/04/01 04:11:59;;;;;;;61.83;24.70;;;10.10;99.90;;;;;;5073607;28;20060;-24
2023/04/01 04:14:25;;;;;;;60.92;24.33;;;9.50;99.90;;;;;;5073761;28;20048;-24
2023/04/01 04:16:51;;;;;;;61.88;24.90;;;8.90;99.90;;;;;;5072486;28;20049;-24
2023/04/01 04:19:17;;;;;;;55.63;23.80;;;10.20;99.90;;;;;;5072206;28;20047;-24
2023/04/01 04:21:42;;;;;;;63.45;25.63;;;8.80;99.90;;;;;;5073029;28;20155;-24
2023/04/01 04:24:09;;;;;;;60.53;23.45;;;9.40;99.90;;;;;;5073705;28;20095;-24
2023/04/01 04:26:35;;;;;;;57.13;24.67;;;9.70;99.90;;;;;;5073881;28;20080;-25
2023/04/01 04:29:02;;;;;;;64.35;25.25;;;9.10;99.90;;;;;;5072449;28;20414;-24
2023/04/01 04:31:27;;;;;;;67.40;26.60;;;9.00;99.90;;;;;;5073493;28;20093;-24
2023/04/01 04:33:53;;;;;;;76.80;27.35;;;8.80;99.90;;;;;;5072438;28;20135;-24
2023/04/01 04:36:20;;;;;;;82.82;28.30;;;8.90;99.90;;;;;;5073522;28;20044;-24
2023/04/01 04:38:46;;;;;;;75.78;27.92;;;9.50;99.90;;;;;;5073499;28;20145;-24
2023/04/01 04:41:13;;;;;;;78.88;29.85;;;8.80;99.90;;;;;;5073473;28;20049;-25
2023/04/01 04:43:40;;;;;;;76.60;27.73;;;9.30;99.90;;;;;;5073789;28;20041;-25
2023/04/01 04:46:10;;;;;;;73.95;27.33;;;9.90;99.90;;;;;;5073440;28;20068;-24
2023/04/01 04:48:36;;;;;;;80.13;29.80;;;10.10;99.90;;;;;;5072158;28;20466;-24
2023/04/01 04:51:03;;;;;;;85.82;30.30;;;9.50;99.90;;;;;;5073342;28;20044;-24
2023/04/01 04:53:29;;;;;;;84.15;30.52;;;8.90;99.90;;;;;;5072408;28;20470;-24
2023/04/01 04:55:55;;;;;;;70.80;25.63;;;10.40;99.90;;;;;;5073426;28;20045;-25
2023/04/01 04:58:21;;;;;;;83.07;29.00;;;8.80;99.90;;;;;;5072673;28;20048;-25
2023/04/01 05:00:47;;;;;;;65.00;25.95;;;9.20;99.90;;;;;;5078413;28;20045;-25
2023/04/01 05:03:13;;;;;;;75.75;28.17;;;10.40;99.90;;;;;;5077256;28;20040;-25
2023/04/01 05:05:39;;;;;;;74.47;27.33;;;9.40;99.90;;;;;;5077189;28;20083;-25
2023/04/01 05:08:05;;;;;;;94.15;32.47;;;10.40;99.90;;;;;;5059562;28;20169;-25
2023/04/01 05:10:31;;;;;;;60.33;22.27;;;8.90;99.90;;;;;;5076933;28;20060;-25
2023/04/01 05:12:58;;;;;;;63.08;25.02;;;9.80;99.90;;;;;;5077070;28;20056;-25
2023/04/01 05:15:24;;;;;;;72.32;26.50;;;8.80;99.90;;;;;;5077016;28;20123;-25
2023/04/01 05:17:50;;;;;;;93.15;30.17;;;9.20;99.90;;;;;;5076884;28;20045;-25
2023/04/01 05:20:16;;;;;;;76.72;28.80;;;9.40;99.90;;;;;;5076787;28;20048;-25
2023/04/01 05:22:43;;;;;;;83.72;29.23;;;8.90;99.90;;;;;;5077514;28;20048;-25
2023/04/01 05:25:09;;;;;;;47.00;19.80;;;10.30;99.90;;;;;;5076799;28;20044;-25
2023/04/01 05:27:35;;;;;;;78.95;27.58;;;10.40;99.90;;;;;;5077120;28;20055;-25
2023/04/01 05:30:01;;;;;;;80.90;27.88;;;8.90;99.90;;;;;;5076918;28;20044;-25
2023/04/01 05:32:27;;;;;;;83.65;29.60;;;9.40;99.90;;;;;;5076696;28;20040;-25
2023/04/01 05:34:53;;;;;;;91.70;31.67;;;9.00;99.90;;;;;;5075348;28;20049;-25
2023/04/01 05:37:19;;;;;;;80.85;29.75;;;9.50;99.90;;;;;;5076755;28;20471;-25
2023/04/01 05:39:45;;;;;;;88.53;32.13;;;9.00;99.90;;;;;;5075271;28;20102;-24
2023/04/01 05:42:11;;;;;;;88.53;30.58;;;9.40;99.90;;;;;;5076699;28;20091;-24
2023/04/01 05:44:37;;;;;;;72.93;27.67;;;10.00;99.90;;;;;;5074899;28;20051;-24
2023/04/01 05:47:04;;;;;;;88.45;31.05;;;10.30;99.90;;;;;;5077222;28;20108;-24
2023/04/01 05:49:30;;;;;;;97.93;31.65;;;10.00;99.90;;;;;;5076840;28;20044;-24
2023/04/01 05:51:56;;;;;;;82.13;31.00;;;9.90;99.90;;;;;;5076346;28;20048;-24
2023/04/01 05:54:22;;;;;;;94.65;32.08;;;10.10;99.90;;;;;;5075916;28;20398;-24
2023/04/01 05:56:48;;;;;;;73.80;28.75;;;9.80;99.90;;;;;;5076633;28;20044;-24
2023/04/01 05:59:14;;;;;;;71.78;26.52;;;9.00;99.90;;;;;;5076058;28;20045;-24
2023/04/01 06:01:40;;;;;;;87.80;30.70;;;9.40;99.90;;;;;;5076023;28;20080;-24
2023/04/01 06:04:06;;;;;;;78.50;28.50;;;9.50;99.90;;;;;;5075331;28;20049;-24
2023/04/01 06:06:32;;;;;;;86.63;28.83;;;9.90;99.90;;;;;;5076231;28;20368;-24
2023/04/01 06:09:07;;;;;;;70.65;26.88;;;10.50;99.90;;;;;;5076512;28;20445;-24
2023/04/01 06:12:23;;;;;;;75.70;25.45;;;9.00;99.90;;;;;;5075299;28;20140;-24
2023/04/01 06:14:53;;;;;;;89.10;29.92;;;10.10;99.90;;;;;;5075744;28;20048;-24
2023/04/01 06:18:03;;;;;;;76.57;27.08;;;9.10;99.90;;;;;;5058118;28;20085;-24
2023/04/01 06:20:46;;;;;;;68.75;26.13;;;10.60;99.90;;;;;;5075132;28;20056;-24
2023/04/01 06:23:21;;;;;;;83.03;29.20;;;9.40;99.90;;;;;;5076132;28;20055;-24
2023/04/01 06:26:02;;;;;;;96.72;30.35;;;10.60;99.90;;;;;;5074469;28;20048;-24
2023/04/01 06:28:46;;;;;;;73.07;26.77;;;10.50;99.90;;;;;;5074742;28;20139;-25
2023/04/01 06:31:53;;;;;;;66.78;25.70;;;10.20;99.90;;;;;;5075562;28;20047;-24
2023/04/01 06:35:20;;;;;;;77.03;27.38;;;9.20;99.90;;;;;;5073769;28;20055;-24
2023/04/01 06:37:57;;;;;;;85.55;30.67;;;9.90;99.90;;;;;;5076311;28;20103;-24
2023/04/01 06:40:49;;;;;;;82.78;29.88;;;9.80;99.90;;;;;;5075415;28;20390;-24
2023/04/01 06:43:27;;;;;;;85.90;31.50;;;10.10;99.90;;;;;;5074752;28;20044;-25
2023/04/01 06:46:06;;;;;;;81.15;30.63;;;9.60;99.90;;;;;;5075107;28;20445;-25
2023/04/01 06:49:05;;;;;;;85.47;31.08;;;9.70;99.90;;;;;;5057967;28;20101;-24
2023/04/01 06:51:58;;;;;;;58.83;24.75;;;11.20;99.90;;;;;;5075128;28;20478;-25
2023/04/01 06:54:45;;;;;;;69.50;30.38;;;11.20;99.90;;;;;;5075179;28;20087;-24
2023/04/01 06:57:30;;;;;;;52.53;22.90;;;10.00;99.90;;;;;;5074754;28;20040;-24
2023/04/01 06:59:59;;;;;;;62.78;28.13;;;10.60;99.90;;;;;;5075598;28;20045;-25
2023/04/01 07:02:36;;;;;;;56.28;27.08;;;9.70;99.90;;;;;;5074046;28;20048;-25
2023/04/01 07:05:04;;;;;;;52.17;24.75;;;10.90;99.90;;;;;;5074993;28;20071;-25
2023/04/01 07:07:41;;;;;;;53.50;26.73;;;10.60;99.90;;;;;;5074912;28;20048;-24
2023/04/01 07:10:23;;;;;;;57.22;26.20;;;10.80;99.90;;;;;;5075051;28;20044;-25
2023/04/01 07:12:54;;;;;;;53.78;26.52;;;10.60;99.90;;;;;;5075672;28;20044;-25
2023/04/01 07:15:30;;;;;;;51.67;24.55;;;11.20;99.90;;;;;;5075588;28;20127;-25
2023/04/01 07:18:02;;;;;;;51.95;26.25;;;10.10;99.90;;;;;;5074656;28;20131;-25
2023/04/01 07:20:35;;;;;;;55.30;27.87;;;10.00;99.90;;;;;;5074732;28;20048;-24
2023/04/01 07:23:08;;;;;;;61.38;28.85;;;10.00;99.90;;;;;;5074785;28;20394;-24
2023/04/01 07:25:35;;;;;;;59.67;26.60;;;11.10;99.90;;;;;;5074596;28;20536;-25
2023/04/01 07:28:05;;;;;;;58.00;30.20;;;10.30;99.90;;;;;;5074350;28;20044;-24
2023/04/01 07:31:04;;;;;;;63.95;30.15;;;10.30;99.90;;;;;;5074354;28;20048;-25
2023/04/01 07:33:41;;;;;;;56.13;28.30;;;10.20;99.90;;;;;;5073262;28;20049;-25
2023/04/01 07:36:16;;;;;;;57.72;27.88;;;10.30;99.90;;;;;;5074925;28;20406;-24
2023/04/01 07:39:07;;;;;;;54.53;27.70;;;10.70;99.90;;;;;;5074504;28;20486;-25
2023/04/01 07:41:53;;;;;;;51.42;27.17;;;10.90;99.90;;;;;;5074209;28;20051;-25
2023/04/01 07:44:51;;;;;;;48.75;25.88;;;10.90;99.90;;;;;;5062415;28;20517;-25
2023/04/01 07:47:40;;;;;;;45.63;25.38;;;10.40;99.90;;;;;;5073740;28;20135;-25
2023/04/01 07:50:17;;;;;;;43.67;24.02;;;10.70;99.90;;;;;;5056484;28;20567;-25
2023/04/01 07:53:24;;;;;;;40.03;23.13;;;11.00;99.90;;;;;;5074880;28;20052;-25
2023/04/01 07:56:09;;;;;;;38.55;22.23;;;10.40;99.90;;;;;;5052024;28;20084;-25
2023/04/01 07:58:47;;;;;;;38.10;21.63;;;10.30;99.90;;;;;;5074561;28;20044;-25
2023/04/01 08:01:28;;;;;;;39.78;23.88;;;10.50;99.90;;;;;;5074266;28;20051;-25
2023/04/01 08:04:03;;;;;;;44.47;24.90;;;10.50;99.90;;;;;;5074753;28;20055;-25
2023/04/01 08:06:36;;;;;;;37.67;22.33;;;10.60;99.90;;;;;;5073907;28;20081;-25
2023/04/01 08:09:09;;;;;;;32.17;20.67;;;11.30;99.90;;;;;;5072973;28;20072;-25
2023/04/01 08:11:35;;;;;;;28.13;17.88;;;10.70;99.90;;;;;;5073941;28;20506;-25
2023/04/01 08:14:29;;;;;;;27.67;19.70;;;10.80;99.90;;;;;;5073763;28;20086;-25
2023/04/01 08:17:15;;;;;;;25.63;17.88;;;10.90;99.90;;;;;;5073715;28;20052;-26
2023/04/01 08:19:41;;;;;;;27.75;19.13;;;;;;;;;;5056074;28;20048;-25
2023/04/01 08:22:22;;;;;;;24.15;17.77;;;11.30;99.90;;;;;;5073711;28;20056;-25
2023/04/01 08:24:50;;;;;;;23.55;16.83;;;11.30;99.90;;;;;;5073712;28;20048;-26
2023/04/01 08:27:24;;;;;;;24.38;16.92;;;11.40;99.90;;;;;;5074470;28;20048;-25
2023/04/01 08:30:11;;;;;;;23.85;17.17;;;11.30;99.90;;;;;;5073596;28;20063;-25
2023/04/01 08:32:41;;;;;;;20.45;15.52;;;11.40;99.90;;;;;;5073821;28;20452;-26
2023/04/01 08:35:26;;;;;;;21.67;17.33;;;11.50;99.90;;;;;;5073325;28;20049;-26
2023/04/01 08:37:55;;;;;;;21.38;15.90;;;11.50;99.90;;;;;;5073185;28;20125;-26
2023/04/01 08:40:29;;;;;;;18.58;14.02;;;11.40;99.90;;;;;;5073198;28;20498;-26
2023/04/01 08:43:28;;;;;;;20.67;15.27;;;11.30;99.90;;;;;;5073568;28;20087;-26
2023/04/01 08:46:19;;;;;;;15.38;12.35;;;11.30;99.90;;;;;;5073517;28;20084;-26
2023/04/01 08:48:57;;;;;;;11.05;6.95;;;11.20;99.90;;;;;;5073445;28;20544;-27
2023/04/01 08:51:49;;;;;;;11.50;7.72;;;10.90;99.90;;;;;;5072175;28;20048;-25
2023/04/01 08:54:29;;;;;;;10.60;7.75;;;10.60;99.90;;;;;;5073162;28;20403;-27
2023/04/01 08:57:46;;;;;;;7.25;5.22;;;10.40;99.90;;;;;;5072224;28;20573;-26
2023/04/01 09:00:24;;;;;;;12.45;7.68;;;10.50;99.90;;;;;;5067633;28;20063;-26
2023/04/01 09:02:59;;;;;;;9.90;7.53;;;10.60;99.90;;;;;;5074167;28;20044;-26
2023/04/01 09:05:37;;;;;;;11.93;8.00;;;10.60;99.90;;;;;;5073310;28;20141;-27
2023/04/01 09:08:10;;;;;;;11.43;8.02;;;10.60;99.90;;;;;;5073239;28;20044;-26
2023/04/01 09:10:48;;;;;;;9.80;6.20;;;10.60;99.90;;;;;;5073274;28;20422;-27
2023/04/01 09:13:32;;;;;;;10.88;7.95;;;10.60;99.90;;;;;;5073463;28;20044;-26
2023/04/01 09:16:19;;;;;;;12.20;8.02;;;10.50;99.90;;;;;;5072998;28;20084;-26
2023/04/01 09:19:12;;;;;;;11.55;7.38;;;10.50;99.90;;;;;;5072205;28;20045;-27
2023/04/01 09:21:46;;;;;;;9.25;6.60;;;10.40;99.90;;;;;;5073030;28;20381;-26
2023/04/01 09:24:27;;;;;;;15.15;7.97;;;10.30;99.90;;;;;;5073154;28;20048;-26
2023/04/01 09:27:36;;;;;;;11.32;7.40;;;10.30;99.90;;;;;;5073037;28;20110;-27
2023/04/01 09:30:20;;;;;;;10.32;7.20;;;10.20;99.90;;;;;;5073836;28;20367;-26
2023/04/01 09:32:52;;;;;;;11.05;6.95;;;10.10;99.90;;;;;;5073283;28;20044;-26
2023/04/01 09:35:29;;;;;;;7.30;5.53;;;10.10;99.90;;;;;;5073818;28;20382;-26
2023/04/01 09:38:05;;;;;;;7.55;5.57;;;9.90;99.90;;;;;;5073599;28;20084;-26
2023/04/01 09:40:58;;;;;;;6.35;4.63;;;10.10;99.90;;;;;;5073784;28;20114;-28
2023/04/01 09:43:27;;;;;;;7.30;4.78;;;10.30;99.90;;;;;;5072741;28;20056;-27
2023/04/01 09:46:17;;;;;;;6.53;4.65;;;10.40;99.90;;;;;;5074161;28;20498;-27
2023/04/01 09:49:08;;;;;;;4.25;3.45;;;10.20;99.90;;;;;;5077072;28;20037;-27
2023/04/01 09:52:09;;;;;;;6.15;3.63;;;10.20;99.90;;;;;;5076260;28;20055;-28
2023/04/01 09:54:59;;;;;;;6.55;4.28;;;10.50;99.90;;;;;;5074258;28;20056;-27
2023/04/01 09:57:51;;;;;;;8.13;5.30;;;10.80;99.90;;;;;;5058661;28;20053;-27
2023/04/01 10:00:52;;;;;;;8.30;4.32;;;10.90;99.90;;;;;;5076809;28;20080;-27
2023/04/01 10:03:51;;;;;;;6.82;4.32;;;11.10;99.90;;;;;;5076125;28;20044;-27
2023/04/01 10:06:32;;;;;;;6.70;3.65;;;11.20;99.90;;;;;;5075174;28;20395;-27
2023/04/01 10:09:16;;;;;;;6.55;4.00;;;10.90;99.90;;;;;;5076086;28;20048;-28
2023/04/01 10:12:04;;;;;;;11.00;6.68;;;10.50;99.90;;;;;;5076766;28;20087;-28
2023/04/01 10:14:47;;;;;;;6.72;4.00;;;10.40;99.90;;;;;;5075993;28;20052;-28
2023/04/01 10:17:19;;;;;;;5.88;3.97;;;10.30;99.90;;;;;;5075583;28;20491;-28
2023/04/01 10:20:00;;;;;;;6.75;3.75;;;10.40;99.90;;;;;;5075279;28;20055;-28
2023/04/01 10:22:51;;;;;;;6.57;4.05;;;10.20;99.90;;;;;;5076179;28;20146;-28
2023/04/01 10:25:45;;;;;;;5.13;3.50;;;10.10;99.90;;;;;;5076673;28;20056;-28
2023/04/01 10:28:26;;;;;;;4.75;3.30;;;9.90;99.90;;;;;;5076592;28;20048;-28
2023/04/01 10:31:00;;;;;;;5.38;2.78;;;9.80;99.90;;;;;;5076207;28;20045;-29
2023/04/01 10:33:29;;;;;;;3.85;2.65;;;9.70;99.90;;;;;;5076123;28;20048;-28
2023/04/01 10:36:34;;;;;;;5.95;2.58;;;9.70;99.90;;;;;;5074324;28;20383;-28
2023/04/01 10:39:18;;;;;;;4.72;3.33;;;9.70;99.90;;;;;;5075559;28;20044;-29
2023/04/01 10:42:05;;;;;;;3.97;2.95;;;9.80;99.90;;;;;;5075498;28;20036;-29
2023/04/01 10:44:52;;;;;;;3.42;1.95;;;9.90;99.90;;;;;;5058990;28;20119;-29
2023/04/01 10:47:57;;;;;;;4.80;2.40;;;10.00;99.90;;;;;;5075658;28;20080;-29
2023/04/01 10:50:51;;;;;;;2.75;2.40;;;10.00;99.90;;;;;;5075559;28;20043;-28
2023/04/01 10:53:23;;;;;;;3.40;2.20;;;10.00;99.90;;;;;;5057890;28;20063;-29
2023/04/01 10:56:07;;;;;;;6.75;2.67;;;10.00;99.90;;;;;;5074722;28;20052;-29
2023/04/01 10:59:02;;;;;;;2.70;2.05;;;10.20;99.90;;;;;;5074177;28;20059;-29
2023/04/01 11:01:37;;;;;;;3.72;1.80;;;10.20;99.90;;;;;;5075087;28;20044;-31
2023/04/01 11:04:40;;;;;;;3.63;1.90;;;10.00;99.90;;;;;;5074974;28;20049;-30
2023/04/01 11:07:34;;;;;;;3.92;2.17;;;10.10;99.90;;;;;;5074886;28;20052;-30
2023/04/01 11:10:18;;;;;;;3.30;2.20;;;10.10;99.90;;;;;;5074783;28;20044;-30
2023/04/01 11:13:13;;;;;;;3.80;2.13;;;10.10;99.90;;;;;;5074827;28;20394;-31
2023/04/01 11:16:08;;;;;;;3.20;2.20;;;9.90;99.90;;;;;;5075042;28;20044;-30
2023/04/01 11:19:05;;;;;;;6.28;2.35;;;9.80;99.90;;;;;;5074233;28;20053;-31
2023/04/01 11:22:09;;;;;;;4.57;2.15;;;9.80;99.90;;;;;;5075436;28;20127;-30
2023/04/01 11:24:53;;;;;;;;;;;9.80;99.90;;;;;;5075265;28;20048;-31
2023/04/01 11:27:38;;;;;;;;;;;9.70;99.90;;;;;;5075512;28;19920;-31
2023/04/01 11:30:04;;;;;;;4.57;2.03;;;9.70;99.90;;;;;;5074285;28;19991;-31
2023/04/01 11:32:50;;;;;;;5.53;2.63;;;9.80;99.90;;;;;;5074099;28;20059;-31
2023/04/01 11:35:35;;;;;;;4.07;2.17;;;9.90;99.90;;;;;;5074427;28;20094;-31
2023/04/01 11:38:13;;;;;;;5.32;2.65;;;10.00;99.90;;;;;;5073433;28;20097;-31
2023/04/01 11:41:08;;;;;;;4.72;2.85;;;10.10;99.90;;;;;;5074305;28;20053;-32
2023/04/01 11:43:47;;;;;;;4.32;2.47;;;10.10;99.90;;;;;;5062511;28;20052;-32
2023/04/01 11:46:24;;;;;;;2.78;1.30;;;9.90;99.90;;;;;;5074805;28;20113;-32
2023/04/01 11:49:02;;;;;;;3.88;2.60;;;9.60;99.90;;;;;;5074442;28;20048;-31
2023/04/01 11:52:02;;;;;;;4.65;1.85;;;9.50;99.90;;;;;;5074382;28;20052;-31
2023/04/01 11:54:38;;;;;;;4.85;2.42;;;9.50;99.90;;;;;;5074930;28;20083;-32
2023/04/01 11:57:20;;;;;;;3.50;2.65;;;9.60;99.90;;;;;;5073063;28;20509;-31
2023/04/01 12:00:01;;;;;;;2.88;2.15;;;9.80;99.90;;;;;;5074325;28;20052;-31
2023/04/01 12:02:54;;;;;;;5.18;2.15;;;9.70;99.90;;;;;;5056951;28;20068;-32
2023/04/01 12:05:39;;;;;;;4.75;2.00;;;9.60;99.90;;;;;;5073278;28;20052;-31
2023/04/01 12:08:35;;;;;;;2.90;2.15;;;9.60;99.90;;;;;;5073131;28;20050;-31
2023/04/01 12:11:27;;;;;;;4.38;2.15;;;9.60;99.90;;;;;;5072867;28;20506;-31
2023/04/01 12:14:39;;;;;;;2.55;1.50;;;9.70;99.90;;;;;;5074718;28;20059;-32
2023/04/01 12:17:23;;;;;;;2.45;1.35;;;9.80;99.90;;;;;;5066481;28;20106;-32
2023/04/01 12:20:20;;;;;;;2.10;1.30;;;10.00;99.90;;;;;;5074027;28;20052;-32
2023/04/01 12:23:27;;;;;;;2.80;1.35;;;10.20;99.90;;;;;;5073412;28;20101;-32
2023/04/01 12:26:15;;;;;;;3.13;1.25;;;10.20;99.90;;;;;;5072669;28;20048;-32
2023/04/01 12:29:04;;;;;;;1.73;1.00;;;10.40;99.90;;;;;;5074178;28;20052;-32
2023/04/01 12:31:48;;;;;;;2.33;1.15;;;10.00;99.90;;;;;;5073493;28;20045;-33
2023/04/01 12:34:32;;;;;;;2.95;0.77;;;9.80;99.90;;;;;;5073873;28;20102;-33
2023/04/01 12:37:35;;;;;;;2.17;1.00;;;9.90;99.90;;;;;;5073564;28;20048;-33
2023/04/01 12:40:26;;;;;;;4.13;1.88;;;10.00;99.90;;;;;;5073500;28;20548;-33
2023/04/01 12:43:12;;;;;;;2.00;1.30;;;10.10;99.90;;;;;;5074071;28;20048;-33
2023/04/01 12:46:05;;;;;;;1.88;0.70;;;10.30;99.90;;;;;;5072398;28;20049;-34
2023/04/01 12:48:52;;;;;;;3.13;1.15;;;10.40;99.90;;;;;;5072314;28;20052;-34
2023/04/01 12:51:26;;;;;;;1.80;0.90;;;10.30;99.90;;;;;;5056505;28;20041;-35
2023/04/01 12:54:22;;;;;;;1.88;1.25;;;10.30;99.90;;;;;;5073382;28;20449;-34
2023/04/01 12:57:26;;;;;;;2.25;1.15;;;10.20;99.90;;;;;;5073461;28;20092;-34
2023/04/01 13:00:13;;;;;;;2.97;1.08;;;10.30;99.90;;;;;;5073279;28;20101;-36
2023/04/01 13:03:06;;;;;;;2.40;1.48;;;10.40;99.90;;;;;;5072589;28;20505;-35
2023/04/01 13:05:56;;;;;;;1.70;1.08;;;10.50;99.90;;;;;;5072672;28;20117;-35
2023/04/01 13:08:40;;;;;;;2.90;1.00;;;10.60;99.90;;;;;;5072608;28;20048;-38
2023/04/01 13:11:43;;;;;;;1.65;1.20;;;10.50;99.90;;;;;;5073434;28;20075;-37
2023/04/01 13:14:32;;;;;;;1.45;1.00;;;10.50;99.90;;;;;;5072958;28;20517;-35
2023/04/01 13:17:03;;;;;;;2.70;1.13;;;10.30;99.90;;;;;;5073198;28;20052;-39
2023/04/01 13:19:35;;;;;;;2.78;0.80;;;10.10;99.90;;;;;;5073950;28;20063;-37
2023/04/01 13:22:04;;;;;;;4.00;1.48;;;10.00;99.90;;;;;;5077670;28;20048;-38
2023/04/01 13:24:51;;;;;;;2.22;1.00;;;9.90;99.90;;;;;;5076919;28;20080;-38
2023/04/01 13:27:47;;;;;;;2.33;1.00;;;9.90;99.90;;;;;;5076808;28;20052;-40
2023/04/01 13:30:38;;;;;;;1.63;1.00;;;9.90;99.90;;;;;;5076403;28;20102;-40